Guion, Arkansas
Current Conditions -  °F | °C
As of 2:35 AM on Friday 21 Nov 2014 (Local Time) from KBVX Reporting Station
Overcast Overcast  
Wind Chill: 42°   Ceiling: 2600
Heat Index: 45°   Visibility: 10mi
Dew Point: 27°   Wind: 5mph
Humidity: 49%   Direction: 90°E
Pressure: 30.27"   Gusts: NA
Location:  35.93°N, 91.94°W
Report Text: KBVX 210835Z AUTO 09004KT 10SM OVC026 07/M03 A3027 RMK AO1
Loading
Personal Weather Stations






























Interactive Weather Map New forecast layout! Learn more

10-Day Weather Forecast

Advertisements
Track Severe Weather on mobile